Time;durP1;ratioP1;P1;durP2;ratioP2;P2;SDS_P1;SDS_P2;PMS_P1;PMS_P2;Temp;Humidity;BMP_temperature;BMP_pressure;BME280_temperature;BME280_humidity;BME280_pressure;Samples;Min_cycle;Max_cycle;Signal;HPM_P1;HPM_P2
2020/12/17 00:00:23;;;;;;;23.10;9.80;;;;;;;2.49;78.78;101350.11;1696007;84;21742;-68
2020/12/17 00:02:50;;;;;;;23.98;10.35;;;;;;;2.48;78.77;101351.95;1696082;83;21180;-66
2020/12/17 00:05:18;;;;;;;26.33;10.58;;;;;;;2.52;78.79;101353.92;1696130;84;21333;-68
2020/12/17 00:07:46;;;;;;;22.93;10.25;;;;;;;2.51;78.75;101353.55;1696045;84;21308;-67
2020/12/17 00:10:14;;;;;;;25.50;10.90;;;;;;;2.50;78.83;101350.48;1696193;84;21868;-66
2020/12/17 00:12:44;;;;;;;25.05;10.90;;;;;;;2.51;78.86;101359.82;1695785;84;21102;-68
2020/12/17 00:15:16;;;;;;;21.10;9.70;;;;;;;2.51;78.90;101357.12;1696109;84;21078;-67
2020/12/17 00:17:50;;;;;;;24.27;10.55;;;;;;;2.53;78.87;101359.70;1696044;84;21477;-69
2020/12/17 00:20:23;;;;;;;24.70;11.08;;;;;;;2.56;78.81;101370.27;1695499;84;21102;-67
2020/12/17 00:22:50;;;;;;;21.45;9.80;;;;;;;2.58;78.83;101366.09;1696128;84;21086;-69
2020/12/17 00:25:19;;;;;;;25.68;11.10;;;;;;;2.60;78.86;101365.02;1696183;84;21069;-65
2020/12/17 00:27:46;;;;;;;24.63;10.63;;;;;;;2.61;78.84;101365.89;1696156;84;21722;-69
2020/12/17 00:30:15;;;;;;;25.30;9.85;;;;;;;2.61;78.77;101365.39;1696154;84;21783;-66
2020/12/17 00:32:44;;;;;;;23.12;10.68;;;;;;;2.64;78.76;101371.05;1679863;85;21362;-67
2020/12/17 00:35:12;;;;;;;20.88;9.88;;;;;;;2.67;78.71;101371.66;1708446;84;21309;-65
2020/12/17 00:37:40;;;;;;;23.90;10.32;;;;;;;2.68;78.63;101365.27;1708517;83;21730;-67
2020/12/17 00:40:10;;;;;;;23.83;10.65;;;;;;;2.68;78.63;101366.62;1678496;85;21775;-67
2020/12/17 00:42:41;;;;;;;22.77;10.23;;;;;;;2.67;78.54;101366.25;1696875;84;21798;-69
2020/12/17 00:45:11;;;;;;;22.17;10.93;;;;;;;2.66;78.52;101368.59;1678711;85;21114;-66
2020/12/17 00:47:38;;;;;;;22.90;9.43;;;;;;;2.65;78.49;101364.66;1696843;83;21103;-67
2020/12/17 00:50:07;;;;;;;21.55;9.88;;;;;;;2.63;78.43;101363.42;1708555;84;21078;-68
2020/12/17 00:52:41;;;;;;;22.65;10.68;;;;;;;2.64;78.44;101358.87;1678558;85;21075;-68
2020/12/17 00:55:10;;;;;;;23.22;10.13;;;;;;;2.64;78.45;101363.80;1696904;84;21291;-67
2020/12/17 00:57:37;;;;;;;26.82;11.10;;;;;;;2.61;78.50;101361.33;1696156;84;21081;-68
2020/12/17 01:00:06;;;;;;;24.70;10.65;;;;;;;2.62;78.51;101359.48;1696217;84;21774;-69
2020/12/17 01:02:34;;;;;;;19.65;8.30;;;;;;;2.57;78.47;101358.47;1696222;84;21834;-67
2020/12/17 01:05:04;;;;;;;18.73;8.35;;;;;;;2.54;78.51;101351.95;1696141;84;21232;-67
2020/12/17 01:07:32;;;;;;;20.55;9.10;;;;;;;2.51;78.55;101342.73;1696033;84;21078;-67
2020/12/17 01:10:00;;;;;;;22.48;10.53;;;;;;;2.52;78.65;101335.84;1680133;85;21358;-67
2020/12/17 01:12:27;;;;;;;18.15;9.40;;;;;;;2.54;78.78;101334.38;1708500;84;21307;-68
2020/12/17 01:14:55;;;;;;;20.60;9.55;;;;;;;2.52;78.74;101339.91;1708431;83;21843;-69
2020/12/17 01:17:22;;;;;;;20.72;9.50;;;;;;;2.52;78.82;101333.63;1678608;85;21816;-67
2020/12/17 01:19:50;;;;;;;20.40;9.68;;;;;;;2.54;78.83;101335.72;1696876;84;21149;-67
2020/12/17 01:22:19;;;;;;;19.60;9.93;;;;;;;2.57;78.79;101333.27;1708508;84;21226;-66
2020/12/17 01:24:46;;;;;;;18.40;9.35;;;;;;;2.57;78.73;101331.42;1678566;85;21751;-69
2020/12/17 01:27:13;;;;;;;19.05;9.18;;;;;;;2.56;78.74;101332.41;1696878;84;21091;-68
2020/12/17 01:29:42;;;;;;;20.40;9.80;;;;;;;2.52;78.78;101326.88;1708379;83;21051;-68
2020/12/17 01:32:10;;;;;;;19.73;8.13;;;;;;;2.49;78.81;101327.98;1678565;85;21679;-66
2020/12/17 01:34:38;;;;;;;20.72;9.48;;;;;;;2.49;78.92;101323.06;1696801;84;21759;-68
2020/12/17 01:37:07;;;;;;;22.10;9.90;;;;;;;2.53;78.93;101323.18;1706520;83;21870;-68
2020/12/17 01:39:34;;;;;;;19.48;8.65;;;;;;;2.56;79.02;101325.64;1678724;85;21727;-67
2020/12/17 01:42:02;;;;;;;17.05;8.60;;;;;;;2.57;79.01;101331.42;1656446;84;21433;-67
2020/12/17 01:44:30;;;;;;;17.00;8.23;;;;;;;2.56;78.92;101333.75;1708587;84;21230;-68
2020/12/17 01:46:58;;;;;;;20.32;8.75;;;;;;;2.55;78.84;101334.25;1678569;85;21102;-67
2020/12/17 01:49:26;;;;;;;17.60;8.00;;;;;;;2.54;78.79;101333.02;1696832;84;21708;-68
2020/12/17 01:51:53;;;;;;;16.52;7.60;;;;;;;2.53;78.67;101339.41;1708368;84;21309;-68
2020/12/17 01:54:21;;;;;;;17.80;7.42;;;;;;;2.49;78.65;101351.46;1678552;85;21349;-69
2020/12/17 01:57:01;;;;;;;18.95;8.05;;;;;;;2.46;78.75;101347.65;1696635;84;21051;-68
2020/12/17 01:59:49;;;;;;;18.30;8.10;;;;;;;2.46;78.87;101351.70;1708322;84;21789;-66
2020/12/17 02:02:17;;;;;;;;;;;;;;;2.43;78.81;101351.95;1680968;85;21189;-67
2020/12/17 02:04:45;;;;;;;14.83;6.22;;;;;;;2.45;78.86;101362.16;1696932;83;20292;-69
2020/12/17 02:07:12;;;;;;;16.82;7.17;;;;;;;2.40;78.74;101354.41;1708587;83;21298;-69
2020/12/17 02:09:42;;;;;;;17.00;7.28;;;;;;;2.37;78.83;101349.24;1678512;85;21067;-67
2020/12/17 02:12:09;;;;;;;15.08;7.03;;;;;;;2.36;78.98;101338.55;1679006;84;21269;-68
2020/12/17 02:14:37;;;;;;;17.82;8.23;;;;;;;2.36;79.07;101335.84;1708373;83;21772;-67
2020/12/17 02:17:04;;;;;;;17.32;7.67;;;;;;;2.37;79.14;101330.80;1678609;85;21071;-66
2020/12/17 02:19:31;;;;;;;21.35;8.50;;;;;;;2.42;79.16;101336.70;1696951;84;21262;-67
2020/12/17 02:21:58;;;;;;;21.57;9.63;;;;;;;2.44;79.05;101330.19;1708433;83;21110;-66
2020/12/17 02:24:26;;;;;;;20.23;10.38;;;;;;;2.45;79.01;101334.62;1678649;85;21257;-67
2020/12/17 02:26:53;;;;;;;21.20;10.15;;;;;;;2.44;79.03;101335.60;1696853;84;21795;-67
2020/12/17 02:29:21;;;;;;;21.73;9.58;;;;;;;2.44;79.02;101341.50;1696028;84;21070;-67
2020/12/17 02:31:49;;;;;;;17.77;8.08;;;;;;;2.45;79.05;101341.87;1680074;85;21289;-67
2020/12/17 02:34:17;;;;;;;20.10;9.08;;;;;;;2.45;79.07;101343.22;1707640;83;21370;-68
2020/12/17 02:36:45;;;;;;;16.93;8.28;;;;;;;2.48;79.08;101345.19;1680718;83;21299;-67
2020/12/17 02:39:12;;;;;;;14.75;7.15;;;;;;;2.49;79.05;101346.91;1652452;86;21157;-67
2020/12/17 02:41:40;;;;;;;18.77;7.92;;;;;;;2.50;79.04;101347.77;1683805;84;21121;-67
2020/12/17 02:44:07;;;;;;;16.95;7.90;;;;;;;2.46;78.96;101349.86;1667626;86;21265;-67
2020/12/17 02:46:35;;;;;;;17.52;7.83;;;;;;;2.45;79.08;101353.55;1652551;86;21846;-67
2020/12/17 02:49:03;;;;;;;18.52;7.55;;;;;;;2.46;79.09;101354.41;1667395;86;21342;-68
2020/12/17 02:51:30;;;;;;;17.82;8.03;;;;;;;2.47;79.04;101361.05;1658029;84;21064;-67
2020/12/17 02:53:58;;;;;;;15.15;7.17;;;;;;;2.46;79.06;101355.77;1684140;84;21880;-68
2020/12/17 02:56:25;;;;;;;14.73;7.00;;;;;;;2.45;79.10;101358.96;1681211;84;21467;-68
2020/12/17 02:58:52;;;;;;;16.70;7.55;;;;;;;2.42;79.09;101356.99;1681041;84;21977;-66
2020/12/17 03:01:20;;;;;;;21.20;7.97;;;;;;;2.39;79.22;101357.23;1684225;84;21252;-66
2020/12/17 03:03:47;;;;;;;17.42;7.80;;;;;;;2.41;79.29;101353.91;1685168;84;21789;-65
2020/12/17 03:06:15;;;;;;;19.05;8.28;;;;;;;2.45;79.36;101353.55;1685047;85;21315;-66
2020/12/17 03:08:43;;;;;;;17.17;7.95;;;;;;;2.49;79.38;101352.33;1685200;85;21796;-67
2020/12/17 03:11:10;;;;;;;18.48;8.10;;;;;;;2.50;79.40;101360.80;1685143;84;21137;-68
2020/12/17 03:13:38;;;;;;;16.62;7.83;;;;;;;2.53;79.43;101362.41;1685024;84;21128;-69
2020/12/17 03:16:05;;;;;;;18.70;8.43;;;;;;;2.54;79.37;101361.42;1685137;84;21093;-67
2020/12/17 03:18:33;;;;;;;18.90;8.38;;;;;;;2.54;79.33;101356.02;1685130;84;21062;-67
2020/12/17 03:21:00;;;;;;;16.27;7.92;;;;;;;2.56;79.31;101358.11;1685014;84;21791;-67
2020/12/17 03:23:27;;;;;;;16.37;8.45;;;;;;;2.55;79.30;101360.44;1685214;85;21325;-67
2020/12/17 03:25:55;;;;;;;18.00;8.73;;;;;;;2.55;79.36;101359.09;1685069;85;21049;-67
2020/12/17 03:28:22;;;;;;;18.37;8.95;;;;;;;2.57;79.40;101372.00;1685118;84;21380;-67
2020/12/17 03:30:50;;;;;;;17.92;7.72;;;;;;;2.55;79.40;101378.02;1685146;85;21064;-68
2020/12/17 03:33:18;;;;;;;17.23;8.38;;;;;;;2.54;79.43;101374.45;1685207;84;21072;-67
2020/12/17 03:35:45;;;;;;;17.80;8.73;;;;;;;2.56;79.44;101378.39;1685088;84;21327;-70
2020/12/17 03:38:12;;;;;;;19.60;9.08;;;;;;;2.58;79.49;101381.84;1685196;84;21827;-67
2020/12/17 03:40:40;;;;;;;17.92;8.40;;;;;;;2.59;79.56;101386.27;1681769;84;21405;-67
2020/12/17 03:43:07;;;;;;;20.05;10.55;;;;;;;2.62;79.58;101387.41;1681293;85;21897;-67
2020/12/17 03:45:34;;;;;;;21.48;9.93;;;;;;;2.58;79.48;101388.60;1742859;82;21835;-67
2020/12/17 03:48:02;;;;;;;20.32;8.93;;;;;;;2.54;79.50;101388.47;1743089;82;21241;-68
2020/12/17 03:50:29;;;;;;;18.30;8.45;;;;;;;2.56;79.62;101398.68;1743809;82;21341;-68
2020/12/17 03:52:56;;;;;;;20.08;9.73;;;;;;;2.57;79.65;101390.94;1744011;81;21059;-67
2020/12/17 03:55:24;;;;;;;20.80;10.00;;;;;;;2.57;79.70;101388.72;1744160;82;21790;-66
2020/12/17 03:57:51;;;;;;;20.30;9.58;;;;;;;2.57;79.80;101389.58;1716892;82;21249;-67
2020/12/17 04:00:19;;;;;;;18.73;8.48;;;;;;;2.56;79.90;101389.22;1744752;82;21753;-68
2020/12/17 04:02:47;;;;;;;22.95;9.30;;;;;;;2.59;79.98;101390.33;1744448;82;21469;-67
2020/12/17 04:05:15;;;;;;;17.17;8.25;;;;;;;2.63;79.94;101390.48;1744260;82;21097;-68
2020/12/17 04:07:42;;;;;;;15.65;8.60;;;;;;;2.66;79.90;101388.02;1744354;82;21059;-66
2020/12/17 04:10:11;;;;;;;18.90;9.50;;;;;;;2.67;79.96;101393.80;1744312;82;21226;-67
2020/12/17 04:12:38;;;;;;;17.07;8.03;;;;;;;2.69;80.02;101392.70;1744217;82;21054;-68
2020/12/17 04:15:06;;;;;;;17.02;7.92;;;;;;;2.71;80.00;101396.14;1744339;82;21253;-66
2020/12/17 04:17:33;;;;;;;19.35;8.50;;;;;;;2.71;79.91;101393.92;1744300;82;21054;-67
2020/12/17 04:20:00;;;;;;;21.27;9.28;;;;;;;2.73;79.90;101393.31;1744235;82;21058;-66
2020/12/17 04:22:28;;;;;;;19.82;9.55;;;;;;;2.74;79.86;101392.33;1744420;81;21233;-66
2020/12/17 04:24:55;;;;;;;23.45;9.98;;;;;;;2.76;79.89;101395.77;1744345;82;21506;-68
2020/12/17 04:27:22;;;;;;;19.27;9.38;;;;;;;2.75;79.89;101398.97;1744359;81;21030;-66
2020/12/17 04:29:50;;;;;;;19.32;10.18;;;;;;;2.76;79.83;101397.98;1730880;82;21313;-66
2020/12/17 04:32:17;;;;;;;17.57;8.68;;;;;;;2.75;79.80;101398.97;1724937;83;21073;-67
2020/12/17 04:34:45;;;;;;;19.98;9.75;;;;;;;2.77;79.80;101402.41;1687445;85;21910;-66
2020/12/17 04:37:12;;;;;;;22.25;10.08;;;;;;;2.75;79.70;101398.97;1659774;86;21089;-66
2020/12/17 04:39:39;;;;;;;17.23;9.13;;;;;;;2.72;79.80;101397.00;1680944;85;21344;-66
2020/12/17 04:42:07;;;;;;;14.87;8.03;;;;;;;2.70;79.85;101393.55;1687577;85;21185;-65
2020/12/17 04:44:34;;;;;;;18.40;7.28;;;;;;;2.69;79.90;101391.84;1680923;85;21340;-68
2020/12/17 04:47:05;;;;;;;15.80;6.72;;;;;;;2.67;79.92;101389.25;1681415;84;21065;-68
2020/12/17 04:49:43;;;;;;;13.68;6.35;;;;;;;2.66;79.85;101390.23;1688160;85;21823;-68
2020/12/17 04:52:11;;;;;;;14.18;7.20;;;;;;;2.64;79.87;101396.75;1677626;85;21357;-66
2020/12/17 04:54:38;;;;;;;15.13;7.12;;;;;;;2.61;79.93;101391.59;1660085;85;21316;-68
2020/12/17 04:57:14;;;;;;;17.02;7.25;;;;;;;2.59;80.03;101386.27;1679398;85;21093;-66
2020/12/17 04:59:46;;;;;;;14.83;7.00;;;;;;;2.61;80.09;101397.86;1679281;85;21127;-69
2020/12/17 05:02:20;;;;;;;15.83;7.45;;;;;;;2.63;80.09;101392.33;1679651;85;21414;-68
2020/12/17 05:04:49;;;;;;;15.80;8.00;;;;;;;2.65;80.11;101395.28;1679526;85;21081;-66
2020/12/17 05:07:22;;;;;;;17.12;8.45;;;;;;;2.65;80.17;101389.00;1672924;85;21848;-66
2020/12/17 05:09:51;;;;;;;17.57;8.50;;;;;;;2.65;80.19;101397.13;1671887;84;21319;-66
2020/12/17 05:12:19;;;;;;;19.62;7.92;;;;;;;2.66;80.28;101397.00;1681143;84;21679;-69
2020/12/17 05:14:47;;;;;;;16.93;7.40;;;;;;;2.65;80.23;101390.36;1663138;85;21338;-68
2020/12/17 05:17:15;;;;;;;21.55;9.85;;;;;;;2.66;80.30;101395.64;1633005;85;21098;-68
2020/12/17 05:19:44;;;;;;;17.27;8.90;;;;;;;2.70;80.41;101395.77;1674303;85;21073;-68
2020/12/17 05:22:16;;;;;;;22.60;9.93;;;;;;;2.73;80.34;101398.23;1674655;85;21313;-67
2020/12/17 05:24:44;;;;;;;21.70;9.73;;;;;;;2.76;80.37;101402.05;1674472;85;21786;-67
2020/12/17 05:27:11;;;;;;;19.50;7.70;;;;;;;2.79;80.44;101405.86;1674498;84;21109;-67
2020/12/17 05:29:39;;;;;;;17.40;8.05;;;;;;;2.82;80.30;101404.26;1674444;85;21173;-68
2020/12/17 05:32:08;;;;;;;16.12;8.03;;;;;;;2.84;80.17;101407.70;1674509;85;21268;-67
2020/12/17 05:34:38;;;;;;;13.75;7.42;;;;;;;2.89;80.14;101417.30;1674487;84;21289;-69
2020/12/17 05:37:06;;;;;;;22.25;10.65;;;;;;;2.91;80.05;101413.98;1674156;85;21102;-67
2020/12/17 05:39:34;;;;;;;22.42;11.88;;;;;;;2.91;80.02;101414.84;1665434;84;21896;-67
2020/12/17 05:42:01;;;;;;;25.27;12.47;;;;;;;2.92;79.88;101419.27;1638691;86;21337;-67
2020/12/17 05:44:30;;;;;;;30.48;13.60;;;;;;;2.86;79.74;101423.33;1658015;86;21114;-65
2020/12/17 05:46:57;;;;;;;26.70;12.85;;;;;;;2.83;79.67;101419.52;1658136;86;21130;-66
2020/12/17 05:49:29;;;;;;;35.25;18.62;;;;;;;2.76;79.68;101418.77;1658068;86;21875;-67
2020/12/17 05:52:15;;;;;;;33.42;17.05;;;;;;;2.74;79.87;101427.50;1658036;86;21228;-67
2020/12/17 05:54:54;;;;;;;27.45;13.93;;;;;;;2.74;80.07;101421.60;1658070;86;21110;-67
2020/12/17 05:57:22;;;;;;;38.85;19.75;;;;;;;2.74;80.06;101433.78;1658102;86;21277;-68
2020/12/17 05:59:58;;;;;;;40.67;20.27;;;;;;;2.71;80.06;101431.32;1658146;85;21103;-67
2020/12/17 06:02:30;;;;;;;38.38;19.52;;;;;;;2.71;80.12;101433.16;1658377;86;21942;-67
2020/12/17 06:05:09;;;;;;;38.85;21.52;;;;;;;2.73;80.19;101435.25;1658056;86;21655;-69
2020/12/17 06:07:49;;;;;;;34.90;17.32;;;;;;;2.74;80.24;101436.98;1658144;86;21333;-67
2020/12/17 06:10:25;;;;;;;34.45;17.67;;;;;;;2.75;80.36;101439.56;1657952;85;21235;-66
2020/12/17 06:12:55;;;;;;;38.95;19.25;;;;;;;2.78;80.33;101442.02;1679891;84;21062;-68
2020/12/17 06:15:25;;;;;;;33.67;15.68;;;;;;;2.79;80.24;101445.59;1652472;85;21338;-67
2020/12/17 06:18:01;;;;;;;37.03;17.73;;;;;;;2.79;80.25;101445.09;1678129;85;21367;-67
2020/12/17 06:20:32;;;;;;;29.20;14.20;;;;;;;2.81;80.23;101448.55;1680380;85;21318;-67
2020/12/17 06:23:06;;;;;;;33.05;13.75;;;;;;;2.79;80.18;101445.59;1713788;83;21087;-68
2020/12/17 06:25:35;;;;;;;34.90;16.62;;;;;;;2.79;80.14;101446.45;1713624;83;21327;-67
2020/12/17 06:28:03;;;;;;;28.73;13.50;;;;;;;2.81;80.11;101448.55;1713670;83;21075;-67
2020/12/17 06:30:32;;;;;;;27.13;13.65;;;;;;;2.84;80.06;101451.01;1688956;83;21401;-66
2020/12/17 06:33:01;;;;;;;24.52;11.12;;;;;;;2.88;79.96;101449.41;1680034;85;21353;-67
2020/12/17 06:35:49;;;;;;;23.20;10.63;;;;;;;2.88;79.80;101444.86;1679034;83;21314;-66
2020/12/17 06:38:24;;;;;;;22.62;10.13;;;;;;;2.86;79.67;101450.39;1604496;86;21079;-68
2020/12/17 06:40:52;;;;;;;25.77;11.70;;;;;;;2.84;79.45;101443.37;1657744;86;21540;-68
2020/12/17 06:43:33;;;;;;;23.73;10.55;;;;;;;2.84;79.42;101451.01;1713663;83;21408;-67
2020/12/17 06:46:02;;;;;;;24.72;11.28;;;;;;;2.88;79.25;101452.12;1713917;83;21078;-67
2020/12/17 06:48:31;;;;;;;24.37;11.55;;;;;;;2.93;79.00;101456.67;1713866;83;21631;-66
2020/12/17 06:51:01;;;;;;;31.75;12.80;;;;;;;2.94;78.89;101454.33;1732421;81;21635;-66
2020/12/17 06:53:41;;;;;;;22.85;10.60;;;;;;;2.94;78.90;101459.75;1746005;82;21281;-68
2020/12/17 06:56:15;;;;;;;22.10;9.28;;;;;;;2.96;78.80;101461.84;1746165;81;21995;-67
2020/12/17 06:58:44;;;;;;;19.80;8.98;;;;;;;2.93;78.56;101466.14;1747661;81;21884;-65
2020/12/17 07:01:26;;;;;;;23.05;11.38;;;;;;;2.92;78.35;101471.19;1749188;82;21046;-65
2020/12/17 07:03:54;;;;;;;39.03;17.57;;;;;;;2.93;78.21;101468.85;1746488;82;21485;-66
2020/12/17 07:06:23;;;;;;;24.25;10.35;;;;;;;2.95;78.07;101468.23;1699041;84;21360;-69
2020/12/17 07:08:56;;;;;;;26.50;11.40;;;;;;;2.96;77.96;101475.38;1678583;85;21770;-67
2020/12/17 07:11:46;;;;;;;25.97;10.38;;;;;;;2.95;77.87;101475.00;1660645;85;21257;-65
2020/12/17 07:14:29;;;;;;;25.43;11.38;;;;;;;2.92;77.74;101477.95;1674937;85;21651;-67
2020/12/17 07:17:06;;;;;;;28.05;12.05;;;;;;;2.93;77.71;101488.66;1674757;85;21370;-66
2020/12/17 07:19:42;;;;;;;27.65;12.25;;;;;;;2.96;77.69;101485.71;1675115;85;21317;-67
2020/12/17 07:22:14;;;;;;;28.92;12.23;;;;;;;2.99;77.72;101492.73;1672621;84;22172;-66
2020/12/17 07:24:51;;;;;;;24.90;11.55;;;;;;;2.99;77.79;101489.53;1659324;86;21098;-68
2020/12/17 07:27:27;;;;;;;17.70;9.40;;;;;;;3.02;77.84;101493.83;1658760;86;21084;-66
2020/12/17 07:30:08;;;;;;;28.10;11.55;;;;;;;3.05;77.80;101501.72;1670996;85;21801;-65
2020/12/17 07:32:45;;;;;;;26.70;10.68;;;;;;;3.05;77.60;101503.06;1674611;85;21839;-67
2020/12/17 07:35:17;;;;;;;24.37;11.25;;;;;;;3.05;77.39;101503.93;1680284;85;21075;-65
2020/12/17 07:37:58;;;;;;;23.57;11.08;;;;;;;3.05;77.27;101509.84;1684117;84;21452;-66
2020/12/17 07:40:41;;;;;;;26.82;12.55;;;;;;;3.04;77.27;101507.63;1684241;85;21319;-67
2020/12/17 07:43:15;;;;;;;28.92;13.62;;;;;;;3.05;77.15;101511.19;1684140;85;21270;-68
2020/12/17 07:45:47;;;;;;;27.05;11.55;;;;;;;3.05;77.02;101512.55;1682985;85;21337;-68
2020/12/17 07:48:48;;;;;;;27.70;12.20;;;;;;;3.06;77.03;101508.85;1683892;84;21235;-69
2020/12/17 07:51:21;;;;;;;27.98;11.30;;;;;;;3.08;76.99;101509.59;1684124;84;21043;-67
2020/12/17 07:53:50;;;;;;;27.30;12.60;;;;;;;3.10;76.70;101508.98;1683721;85;21823;-67
2020/12/17 07:56:20;;;;;;;30.50;13.60;;;;;;;3.10;76.66;101508.98;1688307;85;21284;-66
2020/12/17 07:58:49;;;;;;;25.30;10.80;;;;;;;3.11;76.61;101516.98;1674292;85;21669;-67
2020/12/17 08:01:16;;;;;;;23.55;10.32;;;;;;;3.10;76.36;101504.91;1669383;85;21122;-67
2020/12/17 08:03:52;;;;;;;29.32;10.98;;;;;;;3.08;76.19;101508.23;1676994;84;21121;-69
2020/12/17 08:06:21;;;;;;;30.50;15.75;;;;;;;3.07;76.10;101507.38;1669335;84;21739;-65
2020/12/17 08:09:00;;;;;;;28.35;12.58;;;;;;;3.08;76.17;101502.33;1675920;84;21401;-68
2020/12/17 08:11:30;;;;;;;32.50;15.23;;;;;;;3.12;76.21;101505.66;1673898;84;21112;-66
2020/12/17 08:14:06;;;;;;;31.27;14.40;;;;;;;3.15;76.24;101505.41;1669236;84;21356;-66
2020/12/17 08:16:34;;;;;;;34.75;15.20;;;;;;;3.17;76.16;101507.01;1673388;84;22084;-66
2020/12/17 08:19:02;;;;;;;32.30;14.50;;;;;;;3.15;76.13;101505.41;1671097;84;21047;-65
2020/12/17 08:21:30;;;;;;;35.30;14.28;;;;;;;3.17;76.16;101512.42;1682893;84;21662;-65
2020/12/17 08:23:57;;;;;;;29.27;12.00;;;;;;;3.19;76.05;101509.59;1676550;85;21114;-66
2020/12/17 08:26:26;;;;;;;31.75;13.72;;;;;;;3.22;75.97;101511.19;1678756;84;21412;-68
2020/12/17 08:28:54;;;;;;;33.85;15.55;;;;;;;3.22;75.89;101509.34;1675517;85;21818;-69
2020/12/17 08:31:26;;;;;;;47.00;19.75;;;;;;;3.23;75.89;101509.72;1679401;84;21074;-68
2020/12/17 08:33:56;;;;;;;44.85;20.17;;;;;;;3.26;75.89;101518.13;1676690;85;22204;-67
2020/12/17 08:36:25;;;;;;;33.05;15.15;;;;;;;3.26;75.87;101517.63;1686178;85;21088;-68
2020/12/17 08:39:04;;;;;;;36.42;14.68;;;;;;;3.29;75.87;101518.73;1659473;84;21344;-67
2020/12/17 08:41:41;;;;;;;32.83;14.43;;;;;;;3.30;75.57;101513.69;1674710;84;21243;-67
2020/12/17 08:44:09;;;;;;;40.33;17.07;;;;;;;3.28;75.66;101511.59;1679863;85;21458;-67
2020/12/17 08:46:40;;;;;;;50.17;20.57;;;;;;;3.29;75.78;101514.67;1684746;85;21368;-74
2020/12/17 08:49:08;;;;;;;41.30;17.80;;;;;;;3.32;75.78;101514.42;1677492;84;21360;-74
2020/12/17 08:51:36;;;;;;;32.50;14.90;;;;;;;3.32;75.62;101511.72;1677577;85;21330;-73
2020/12/17 08:54:04;;;;;;;36.38;16.00;;;;;;;3.30;75.54;101527.23;1675844;84;21100;-71
2020/12/17 08:56:33;;;;;;;31.00;14.68;;;;;;;3.28;75.59;101525.14;1678794;84;21097;-76
2020/12/17 08:59:03;;;;;;;28.00;13.18;;;;;;;3.31;75.48;101524.89;1667666;84;21103;-72
2020/12/17 09:01:35;;;;;;;29.07;14.68;;;;;;;3.32;75.35;101528.47;1670110;85;21517;-70
2020/12/17 09:04:07;;;;;;;29.85;13.90;;;;;;;3.30;75.43;101532.65;1684154;85;21098;-72
2020/12/17 09:06:37;;;;;;;32.73;14.47;;;;;;;3.29;75.39;101529.57;1662770;86;21804;-73
2020/12/17 09:09:18;;;;;;;34.20;15.70;;;;;;;3.26;75.25;101528.47;1672333;84;21117;-70
2020/12/17 09:11:47;;;;;;;34.88;17.45;;;;;;;3.25;75.38;101528.09;1668467;84;21647;-72
2020/12/17 09:14:21;;;;;;;34.27;15.53;;;;;;;3.28;75.47;101533.27;1684374;85;21169;-72
2020/12/17 09:16:51;;;;;;;37.95;16.90;;;;;;;3.31;75.52;101536.22;1672639;84;21075;-71
2020/12/17 09:19:19;;;;;;;47.10;21.48;;;;;;;3.32;75.67;101533.39;1676222;84;21071;-70
2020/12/17 09:22:00;;;;;;;38.92;17.15;;;;;;;3.36;75.66;101531.30;1674196;84;22030;-68
2020/12/17 09:24:38;;;;;;;33.15;15.30;;;;;;;3.39;75.66;101529.20;1675549;84;21111;-72
2020/12/17 09:27:27;;;;;;;37.38;16.00;;;;;;;3.45;75.58;101530.05;1683848;84;21109;-73
2020/12/17 09:30:16;;;;;;;34.85;15.93;;;;;;;3.49;75.50;101520.70;1677956;83;21806;-68
2020/12/17 09:32:53;;;;;;;36.68;15.85;;;;;;;3.53;75.54;101527.22;1680170;85;21334;-70
2020/12/17 09:35:25;;;;;;;35.80;16.07;;;;;;;3.59;75.61;101529.42;1687833;84;21649;-68
2020/12/17 09:38:08;;;;;;;36.23;16.67;;;;;;;3.61;75.36;101525.61;1688281;84;21825;-72
2020/12/17 09:40:45;;;;;;;33.73;15.98;;;;;;;3.62;75.19;101527.33;1684394;85;21305;-68
2020/12/17 09:43:14;;;;;;;;;;;;;;;3.64;74.94;101525.36;1680738;84;21119;-71
2020/12/17 09:45:47;;;;;;;32.83;14.87;;;;;;;3.59;74.67;101527.58;1686201;84;20713;-72
2020/12/17 09:48:22;;;;;;;39.48;16.50;;;;;;;3.52;74.62;101525.50;1688126;85;21181;-70
2020/12/17 09:51:01;;;;;;;42.53;17.52;;;;;;;3.48;74.60;101520.81;1680532;84;21708;-70
2020/12/17 09:53:30;;;;;;;33.20;15.50;;;;;;;3.48;74.68;101523.53;1683191;84;21712;-70
2020/12/17 09:55:59;;;;;;;31.50;14.60;;;;;;;3.48;74.72;101518.97;1677152;85;21080;-68
2020/12/17 09:58:26;;;;;;;33.85;15.75;;;;;;;3.48;74.87;101521.68;1680532;85;21869;-70
2020/12/17 10:00:53;;;;;;;30.15;14.18;;;;;;;3.50;74.89;101533.25;1675481;84;21388;-71
2020/12/17 10:03:21;;;;;;;35.80;15.60;;;;;;;3.52;74.82;101522.30;1681223;84;21400;-76
2020/12/17 10:05:48;;;;;;;32.08;14.95;;;;;;;3.48;74.68;101523.03;1686033;84;21172;-65
2020/12/17 10:08:16;;;;;;;38.55;17.40;;;;;;;3.49;74.68;101519.34;1685840;84;21437;-70
2020/12/17 10:10:43;;;;;;;40.52;16.85;;;;;;;3.49;74.81;101513.92;1677680;85;21058;-69
2020/12/17 10:13:11;;;;;;;39.03;17.57;;;;;;;3.53;74.90;101513.17;1684088;84;21857;-69
2020/12/17 10:15:40;;;;;;;37.38;17.37;;;;;;;3.57;74.90;101517.85;1680802;84;21738;-69
2020/12/17 10:18:07;;;;;;;38.15;16.50;;;;;;;3.61;74.85;101509.84;1676652;84;21445;-72
2020/12/17 10:20:34;;;;;;;34.03;16.42;;;;;;;3.65;74.67;101511.31;1679204;84;21378;-72
2020/12/17 10:23:02;;;;;;;39.30;15.58;;;;;;;3.66;74.60;101511.19;1686932;85;21802;-66
2020/12/17 10:25:29;;;;;;;31.77;15.60;;;;;;;3.70;74.43;101514.50;1682732;84;21361;-67
2020/12/17 10:27:58;;;;;;;36.63;15.65;;;;;;;3.69;74.37;101512.78;1678210;84;21408;-68
2020/12/17 10:30:26;;;;;;;34.50;18.10;;;;;;;3.70;74.31;101515.37;1680637;84;21898;-69
2020/12/17 10:32:55;;;;;;;33.40;15.32;;;;;;;3.71;74.29;101516.23;1685362;85;21105;-67
2020/12/17 10:35:24;;;;;;;37.67;17.52;;;;;;;3.69;74.20;101519.06;1672101;84;21850;-71
2020/12/17 10:37:51;;;;;;;40.08;20.97;;;;;;;3.68;74.13;101517.83;1662111;85;21594;-66
2020/12/17 10:40:19;;;;;;;36.53;15.80;;;;;;;3.68;74.22;101505.64;1660101;86;21086;-65
2020/12/17 10:42:48;;;;;;;41.55;18.23;;;;;;;3.68;74.08;101509.21;1658295;86;21126;-65
2020/12/17 10:45:16;;;;;;;36.08;17.30;;;;;;;3.67;74.04;101514.27;1684117;85;21111;-67
2020/12/17 10:47:43;;;;;;;37.05;17.48;;;;;;;3.72;74.16;101517.95;1690018;84;21253;-71
2020/12/17 10:50:10;;;;;;;42.78;19.05;;;;;;;3.74;74.07;101510.06;1677790;84;21777;-71
2020/12/17 10:52:38;;;;;;;46.50;19.80;;;;;;;3.79;74.05;101523.23;1685089;84;21326;-70
2020/12/17 10:55:06;;;;;;;44.75;20.57;;;;;;;3.83;73.98;101528.77;1686481;85;21324;-69
2020/12/17 10:57:33;;;;;;;37.05;18.10;;;;;;;3.87;73.87;101519.89;1688478;85;21359;-69
2020/12/17 11:00:01;;;;;;;41.60;18.67;;;;;;;3.87;73.67;101512.62;1685873;84;21557;-69
2020/12/17 11:02:28;;;;;;;43.15;17.75;;;;;;;3.85;73.59;101516.44;1682136;84;21157;-69
2020/12/17 11:04:55;;;;;;;46.90;21.65;;;;;;;3.83;73.56;101520.14;1668025;84;21944;-69
2020/12/17 11:07:23;;;;;;;45.10;21.55;;;;;;;3.83;73.61;101515.21;1674560;85;21444;-68
2020/12/17 11:09:51;;;;;;;50.58;22.32;;;;;;;3.82;73.70;101517.06;1677786;84;21747;-72
2020/12/17 11:12:18;;;;;;;48.38;22.27;;;;;;;3.83;73.85;101517.92;1662158;85;21217;-72
2020/12/17 11:14:46;;;;;;;47.65;20.40;;;;;;;3.86;73.88;101519.52;1682223;84;21589;-74
2020/12/17 11:17:14;;;;;;;49.48;19.82;;;;;;;3.89;73.99;101521.48;1675409;84;21103;-73
2020/12/17 11:19:41;;;;;;;45.48;18.77;;;;;;;3.91;73.91;101522.74;1662367;86;21147;-73
2020/12/17 11:22:09;;;;;;;38.75;19.25;;;;;;;3.92;73.81;101526.69;1662317;86;21212;-73
2020/12/17 11:24:36;;;;;;;41.02;19.77;;;;;;;3.91;73.75;101524.96;1681988;84;21555;-75
2020/12/17 11:27:04;;;;;;;51.37;23.38;;;;;;;3.89;73.84;101521.48;1697779;84;21170;-74
2020/12/17 11:29:32;;;;;;;48.38;21.90;;;;;;;3.89;73.83;101524.20;1691644;84;21047;-77
2020/12/17 11:31:59;;;;;;;46.28;20.75;;;;;;;3.86;73.85;101517.67;1683722;84;21241;-79
2020/12/17 11:34:28;;;;;;;47.03;20.30;;;;;;;3.87;73.86;101528.02;1682119;85;21105;-77